Time;durP1;ratioP1;P1;durP2;ratioP2;P2;SDS_P1;SDS_P2;PMS_P1;PMS_P2;Temp;Humidity;BMP_temperature;BMP_pressure;BME280_temperature;BME280_humidity;BME280_pressure;Samples;Min_cycle;Max_cycle;Signal;HPM_P1;HPM_P2
2022/08/05 00:00:02;93650.00;0.31;162.61;0.00;0.00;0.62;;;;;28.70;1.00;;;;;;2272860;61;1760;-87
2022/08/05 00:02:30;211810.00;0.71;366.25;0.00;0.00;0.62;;;;;28.70;1.00;;;;;;2272761;61;1925;-86
2022/08/05 00:04:57;0.00;0.00;0.62;0.00;0.00;0.62;;;;;28.70;1.00;;;;;;2272819;61;1371;-87
2022/08/05 00:07:24;0.00;0.00;0.62;0.00;0.00;0.62;;;;;28.50;1.00;;;;;;2272904;61;1081;-87
2022/08/05 00:09:51;14342.00;0.05;25.47;0.00;0.00;0.62;;;;;28.60;1.00;;;;;;2272847;61;1137;-87
2022/08/05 00:12:18;190304.00;0.63;329.23;0.00;0.00;0.62;;;;;28.60;1.00;;;;;;2272898;61;1110;-87
2022/08/05 00:14:45;0.00;0.00;0.62;0.00;0.00;0.62;;;;;28.40;1.00;;;;;;2272802;61;1395;-86
2022/08/05 00:17:11;38343.00;0.13;67.02;0.00;0.00;0.62;;;;;28.40;1.00;;;;;;2272857;61;1042;-87
2022/08/05 00:19:40;207056.00;0.69;358.07;0.00;0.00;0.62;;;;;28.20;1.00;;;;;;2272867;61;1043;-86
2022/08/05 00:22:07;73501.00;0.25;127.81;0.00;0.00;0.62;;;;;27.80;1.00;;;;;;2272801;61;1924;-87
2022/08/05 00:24:34;0.00;0.00;0.62;0.00;0.00;0.62;;;;;27.80;1.00;;;;;;2272790;61;1375;-87
2022/08/05 00:27:01;36343.00;0.12;63.56;0.00;0.00;0.62;;;;;27.80;1.00;;;;;;2272773;61;1603;-87
2022/08/05 00:29:28;22620.00;0.08;39.81;0.00;0.00;0.62;;;;;27.90;1.00;;;;;;2272769;61;909;-87
2022/08/05 00:31:55;0.00;0.00;0.62;0.00;0.00;0.62;;;;;27.90;1.00;;;;;;2272826;61;1058;-88
2022/08/05 00:34:22;0.00;0.00;0.62;0.00;0.00;0.62;;;;;28.00;1.00;;;;;;2272672;61;1400;-86
2022/08/05 00:36:51;103002.00;0.34;178.75;10489.00;0.03;18.80;;;;;28.20;1.00;;;;;;2272786;61;1067;-87
2022/08/05 00:39:17;28164.00;0.09;49.41;0.00;0.00;0.62;;;;;28.20;1.00;;;;;;2272785;61;1078;-87
2022/08/05 00:41:46;0.00;0.00;0.62;0.00;0.00;0.62;;;;;28.20;1.00;;;;;;2272744;61;1982;-87
2022/08/05 00:44:13;32671.00;0.11;57.21;0.00;0.00;0.62;;;;;28.00;1.00;;;;;;2272673;61;1384;-89
2022/08/05 00:46:40;0.00;0.00;0.62;0.00;0.00;0.62;;;;;28.00;1.00;;;;;;2272731;61;1102;-88
2022/08/05 00:49:07;50558.00;0.17;88.15;0.00;0.00;0.62;;;;;28.10;1.00;;;;;;2272704;61;1665;-86
2022/08/05 00:51:35;23657.00;0.08;41.60;0.00;0.00;0.62;;;;;28.10;1.00;;;;;;2272716;61;1082;-88
2022/08/05 00:54:04;104371.00;0.35;181.12;0.00;0.00;0.62;;;;;28.10;1.00;;;;;;2272689;61;1281;-87
2022/08/05 00:56:31;0.00;0.00;0.62;0.00;0.00;0.62;;;;;28.00;1.00;;;;;;2272656;61;1015;-86
2022/08/05 00:58:57;0.00;0.00;0.62;0.00;0.00;0.62;;;;;27.60;1.00;;;;;;2272720;61;1125;-86
2022/08/05 01:01:24;0.00;0.00;0.62;0.00;0.00;0.62;;;;;26.80;1.00;;;;;;2272656;61;2013;-86
2022/08/05 01:03:51;37012.00;0.12;64.72;0.00;0.00;0.62;;;;;26.20;1.00;;;;;;2272655;61;1360;-86
2022/08/05 01:06:18;113532.00;0.38;196.92;1114.00;0.00;2.55;;;;;25.90;1.00;;;;;;2272619;61;1142;-86
2022/08/05 01:08:45;0.00;0.00;0.62;0.00;0.00;0.62;;;;;25.80;1.00;;;;;;2272673;61;1082;-85
2022/08/05 01:11:18;42063.00;0.14;73.46;0.00;0.00;0.62;;;;;25.80;1.00;;;;;;2272648;61;1062;-86
2022/08/05 01:14:00;0.00;0.00;0.62;0.00;0.00;0.62;;;;;25.90;1.00;;;;;;2272626;61;1454;-85
2022/08/05 01:16:33;81367.00;0.27;141.40;0.00;0.00;0.62;;;;;26.20;1.00;;;;;;2272682;61;1023;-86
2022/08/05 01:19:11;0.00;0.00;0.62;0.00;0.00;0.62;;;;;26.00;1.00;;;;;;2272633;61;1115;-86
2022/08/05 01:22:14;0.00;0.00;0.62;0.00;0.00;0.62;;;;;25.70;1.00;;;;;;2272600;61;1912;-87
2022/08/05 01:24:59;66389.00;0.22;115.52;0.00;0.00;0.62;;;;;26.30;1.00;;;;;;2272551;61;1480;-86
2022/08/05 01:27:57;0.00;0.00;0.62;0.00;0.00;0.62;;;;;26.50;1.00;;;;;;2272521;61;1187;-86
2022/08/05 01:30:29;0.00;0.00;0.62;0.00;0.00;0.62;;;;;26.70;1.00;;;;;;2267730;61;1321;-87
2022/08/05 01:32:58;68826.00;0.23;119.73;0.00;0.00;0.62;;;;;26.50;1.00;;;;;;2272541;61;1132;-86
2022/08/05 01:35:30;181414.00;0.60;313.92;30974.00;0.10;54.27;;;;;26.30;1.00;;;;;;2272475;61;1412;-86
2022/08/05 01:37:59;14522.00;0.05;25.78;0.00;0.00;0.62;;;;;26.40;1.00;;;;;;2272550;61;1028;-85
2022/08/05 01:40:30;30006.00;0.10;52.59;0.00;0.00;0.62;;;;;26.60;1.00;;;;;;2272524;61;1036;-86
2022/08/05 01:43:00;68222.00;0.23;118.69;0.00;0.00;0.62;;;;;26.70;1.00;;;;;;2272511;61;1989;-85
2022/08/05 01:45:30;83011.00;0.28;144.24;0.00;0.00;0.62;;;;;26.90;1.00;;;;;;2272406;61;2114;-86
2022/08/05 01:48:01;25583.00;0.09;44.94;0.00;0.00;0.62;;;;;27.20;1.00;;;;;;2272534;61;1030;-86
2022/08/05 01:50:31;0.00;0.00;0.62;0.00;0.00;0.62;;;;;27.30;1.00;;;;;;2272518;61;986;-86
2022/08/05 01:53:01;151812.00;0.51;262.93;12338.00;0.04;22.00;;;;;27.00;1.00;;;;;;2272469;61;1082;-86
2022/08/05 01:55:32;122528.00;0.41;212.44;0.00;0.00;0.62;;;;;26.40;1.00;;;;;;2272476;61;1395;-86
2022/08/05 01:58:02;7403.00;0.02;13.45;0.00;0.00;0.62;;;;;26.40;1.00;;;;;;2272578;61;1106;-87
2022/08/05 02:00:33;0.00;0.00;0.62;0.00;0.00;0.62;;;;;26.60;1.00;;;;;;2272501;61;1102;-87
2022/08/05 02:03:06;4736.00;0.02;8.83;0.00;0.00;0.62;;;;;26.70;1.00;;;;;;2272499;61;1986;-86
2022/08/05 02:05:36;0.00;0.00;0.62;0.00;0.00;0.62;;;;;27.00;1.00;;;;;;2272503;61;1466;-86
2022/08/05 02:08:04;0.00;0.00;0.62;0.00;0.00;0.62;;;;;27.10;1.00;;;;;;2272562;61;1138;-86
2022/08/05 02:10:39;24281.00;0.08;42.68;0.00;0.00;0.62;;;;;27.30;1.00;;;;;;2272494;61;1082;-87
2022/08/05 02:13:13;0.00;0.00;0.62;0.00;0.00;0.62;;;;;27.60;1.00;;;;;;2272486;61;1017;-86
2022/08/05 02:15:46;0.00;0.00;0.62;0.00;0.00;0.62;;;;;27.40;1.00;;;;;;2272462;61;1369;-86
2022/08/05 02:18:19;0.00;0.00;0.62;0.00;0.00;0.62;;;;;27.10;1.00;;;;;;2272274;61;947;-86
2022/08/05 02:20:53;0.00;0.00;0.62;0.00;0.00;0.62;;;;;27.30;1.00;;;;;;2272379;61;1110;-88
2022/08/05 02:23:26;0.00;0.00;0.62;0.00;0.00;0.62;;;;;27.50;1.00;;;;;;2272384;61;1988;-87
2022/08/05 02:25:53;59530.00;0.20;103.66;0.00;0.00;0.62;;;;;27.50;1.00;;;;;;2272468;61;1102;-87
2022/08/05 02:28:25;40139.00;0.13;70.13;0.00;0.00;0.62;;;;;27.70;1.00;;;;;;2272389;61;1127;-86
2022/08/05 02:30:59;38716.00;0.13;67.67;0.00;0.00;0.62;;;;;27.70;1.00;;;;;;2272414;61;1122;-87
2022/08/05 02:33:27;58776.00;0.20;102.36;0.00;0.00;0.62;;;;;27.60;1.00;;;;;;2272355;61;1422;-87
2022/08/05 02:35:58;0.00;0.00;0.62;0.00;0.00;0.62;;;;;27.70;1.00;;;;;;2272373;61;1102;-87
2022/08/05 02:38:28;68785.00;0.23;119.66;0.00;0.00;0.62;;;;;27.80;1.00;;;;;;2272339;61;1016;-87
2022/08/05 02:40:57;0.00;0.00;0.62;0.00;0.00;0.62;;;;;27.90;1.00;;;;;;2272381;61;1058;-87
2022/08/05 02:43:26;0.00;0.00;0.62;0.00;0.00;0.62;;;;;27.80;1.00;;;;;;2272283;61;1988;-86
2022/08/05 02:45:56;172945.00;0.58;299.34;0.00;0.00;0.62;;;;;27.70;1.00;;;;;;2272265;61;1610;-86
2022/08/05 02:48:25;400746.00;1.34;691.09;147346.00;0.49;255.23;;;;;27.60;1.00;;;;;;2272300;61;917;-85
2022/08/05 02:50:53;160599.00;0.54;278.07;0.00;0.00;0.62;;;;;27.40;1.00;;;;;;2272288;61;1086;-85
2022/08/05 02:53:21;62076.00;0.21;108.07;0.00;0.00;0.62;;;;;27.30;1.00;;;;;;2272252;61;1293;-86
2022/08/05 02:59:11;0.00;0.00;0.62;0.00;0.00;0.62;;;;;27.30;1.00;;;;;;2272356;61;649;-86
2022/08/05 03:01:40;64485.00;0.21;112.23;0.00;0.00;0.62;;;;;27.20;1.00;;;;;;2272267;61;1161;-87
2022/08/05 03:04:12;196661.00;0.66;340.18;32371.00;0.11;56.69;;;;;27.10;1.00;;;;;;2272217;61;2022;-89
2022/08/05 03:06:41;21958.00;0.07;38.66;0.00;0.00;0.62;;;;;27.20;1.00;;;;;;2272208;61;1000;-88
2022/08/05 03:09:11;220.00;0.00;1.00;0.00;0.00;0.62;;;;;27.10;1.00;;;;;;2272249;61;1192;-85
2022/08/05 03:11:42;0.00;0.00;0.62;0.00;0.00;0.62;;;;;27.30;1.00;;;;;;2272255;61;1102;-85
2022/08/05 03:14:10;285497.00;0.95;492.99;77682.00;0.26;135.03;;;;;27.20;1.00;;;;;;2272233;61;1343;-86
2022/08/05 03:16:37;63945.00;0.21;111.30;0.00;0.00;0.62;;;;;27.20;1.00;;;;;;2272251;61;1134;-87
2022/08/05 03:19:05;36376.00;0.12;63.62;0.00;0.00;0.62;;;;;27.20;1.00;;;;;;2272177;61;1108;-85
2022/08/05 03:21:32;0.00;0.00;0.62;0.00;0.00;0.62;;;;;27.20;1.00;;;;;;2272183;61;1129;-87
2022/08/05 03:24:00;0.00;0.00;0.62;0.00;0.00;0.62;;;;;27.30;1.00;;;;;;2272188;61;2001;-86
2022/08/05 03:26:27;0.00;0.00;0.62;0.00;0.00;0.62;;;;;27.20;1.00;;;;;;2272229;61;1072;-86
2022/08/05 03:28:54;175091.00;0.58;303.04;26189.00;0.09;45.99;;;;;27.20;1.00;;;;;;2272228;61;1054;-86
2022/08/05 03:31:22;0.00;0.00;0.62;0.00;0.00;0.62;;;;;27.20;1.00;;;;;;2273222;61;1042;-86
2022/08/05 03:33:49;68679.00;0.23;119.48;0.00;0.00;0.62;;;;;27.20;1.00;;;;;;2273437;61;1367;-87
2022/08/05 03:36:17;10613.00;0.04;19.01;0.00;0.00;0.62;;;;;27.20;1.00;;;;;;2273531;61;1098;-84
2022/08/05 03:38:44;0.00;0.00;0.62;0.00;0.00;0.62;;;;;26.80;1.00;;;;;;2273545;61;1579;-85
2022/08/05 03:41:11;111186.00;0.37;192.88;45437.00;0.15;79.29;;;;;26.60;1.00;;;;;;2273520;61;1097;-86
2022/08/05 03:43:38;100741.00;0.34;174.85;0.00;0.00;0.62;;;;;26.80;1.00;;;;;;2273475;61;1996;-87
2022/08/05 03:46:05;0.00;0.00;0.62;0.00;0.00;0.62;;;;;26.90;1.00;;;;;;2273495;61;1066;-87
2022/08/05 03:48:32;0.00;0.00;0.62;0.00;0.00;0.62;;;;;27.00;1.00;;;;;;2273509;61;1077;-86
2022/08/05 03:51:08;69143.00;0.23;120.28;0.00;0.00;0.62;;;;;26.80;1.00;;;;;;2273465;61;965;-86
2022/08/05 03:53:41;0.00;0.00;0.62;0.00;0.00;0.62;;;;;26.80;1.00;;;;;;2273483;61;1509;-85
2022/08/05 03:56:15;0.00;0.00;0.62;0.00;0.00;0.62;;;;;26.80;1.00;;;;;;2273503;61;1093;-87
2022/08/05 03:58:46;93585.00;0.31;162.50;24675.00;0.08;43.36;;;;;26.80;1.00;;;;;;2273521;61;1058;-86
2022/08/05 04:01:16;251496.00;0.84;434.52;36285.00;0.12;63.46;;;;;27.00;1.00;;;;;;2273493;61;1114;-86
2022/08/05 04:03:46;74184.00;0.25;128.99;0.00;0.00;0.62;;;;;27.00;1.00;;;;;;2273397;61;2004;-87
2022/08/05 04:06:13;0.00;0.00;0.62;0.00;0.00;0.62;;;;;27.00;1.00;;;;;;2273494;61;1974;-87
2022/08/05 04:08:42;339666.00;1.13;586.10;47454.00;0.16;82.78;;;;;27.10;1.00;;;;;;2273539;61;1082;-86
2022/08/05 04:11:10;0.00;0.00;0.62;0.00;0.00;0.62;;;;;26.90;1.00;;;;;;2273480;61;1141;-86
2022/08/05 04:13:40;0.00;0.00;0.62;0.00;0.00;0.62;;;;;26.10;1.00;;;;;;2273474;61;1382;-85
2022/08/05 04:16:08;136905.00;0.46;237.24;0.00;0.00;0.62;;;;;25.80;1.00;;;;;;2273506;61;1047;-87
2022/08/05 04:18:35;113469.00;0.38;196.82;47134.00;0.16;82.23;;;;;25.80;1.00;;;;;;2273447;61;1113;-87
2022/08/05 04:21:03;0.00;0.00;0.62;0.00;0.00;0.62;;;;;26.00;1.00;;;;;;2273439;61;1045;-86
2022/08/05 04:23:31;0.00;0.00;0.62;0.00;0.00;0.62;;;;;26.40;1.00;;;;;;2273333;61;1915;-86
2022/08/05 04:25:59;0.00;0.00;0.62;0.00;0.00;0.62;;;;;26.60;1.00;;;;;;2273409;61;2191;-86
2022/08/05 04:28:26;0.00;0.00;0.62;0.00;0.00;0.62;;;;;26.50;1.00;;;;;;2273417;61;1143;-87
2022/08/05 04:30:53;0.00;0.00;0.62;0.00;0.00;0.62;;;;;26.70;1.00;;;;;;2273343;61;1067;-86
2022/08/05 04:33:20;0.00;0.00;0.62;0.00;0.00;0.62;;;;;26.50;1.00;;;;;;2273347;61;1306;-86
2022/08/05 04:35:47;0.00;0.00;0.62;0.00;0.00;0.62;;;;;26.40;1.00;;;;;;2273359;61;1110;-86
2022/08/05 04:38:14;0.00;0.00;0.62;0.00;0.00;0.62;;;;;26.40;1.00;;;;;;2273459;61;1035;-87
2022/08/05 04:40:41;102860.00;0.34;178.51;0.00;0.00;0.62;;;;;26.50;1.00;;;;;;2273324;61;1011;-87
2022/08/05 04:43:10;0.00;0.00;0.62;0.00;0.00;0.62;;;;;26.60;1.00;;;;;;2272649;61;1993;-87
2022/08/05 04:45:37;314328.00;1.05;542.55;107232.00;0.36;186.05;;;;;26.80;1.00;;;;;;2272677;61;1392;-86
2022/08/05 04:48:05;65262.00;0.22;113.57;0.00;0.00;0.62;;;;;26.70;1.00;;;;;;2272702;61;1002;-85
2022/08/05 04:50:32;27132.00;0.09;47.62;0.00;0.00;0.62;;;;;27.00;1.00;;;;;;2272588;61;2049;-87
2022/08/05 04:52:59;92802.00;0.31;161.15;0.00;0.00;0.62;;;;;26.80;1.00;;;;;;2272648;61;1085;-86
2022/08/05 04:55:26;0.00;0.00;0.62;0.00;0.00;0.62;;;;;26.50;1.00;;;;;;2272637;61;1401;-87
2022/08/05 04:57:53;0.00;0.00;0.62;0.00;0.00;0.62;;;;;26.30;1.00;;;;;;2272681;61;1013;-84
2022/08/05 05:00:21;0.00;0.00;0.62;0.00;0.00;0.62;;;;;26.20;1.00;;;;;;2272601;61;1082;-86
2022/08/05 05:02:48;0.00;0.00;0.62;0.00;0.00;0.62;;;;;26.30;1.00;;;;;;2272537;61;1915;-88
2022/08/05 05:05:16;19026.00;0.06;33.58;0.00;0.00;0.62;;;;;26.30;1.00;;;;;;2272537;61;1402;-87
2022/08/05 05:07:43;323347.00;1.08;558.05;95022.00;0.32;164.98;;;;;26.60;1.00;;;;;;2272561;61;2162;-86
2022/08/05 05:10:10;96526.00;0.32;167.57;0.00;0.00;0.62;;;;;26.90;1.00;;;;;;2272630;61;1122;-86
2022/08/05 05:12:37;0.00;0.00;0.62;0.00;0.00;0.62;;;;;26.80;1.00;;;;;;2272584;61;1101;-86
2022/08/05 05:15:05;0.00;0.00;0.62;0.00;0.00;0.62;;;;;26.70;1.00;;;;;;2272497;61;1386;-86
2022/08/05 05:17:39;9090.00;0.03;16.37;0.00;0.00;0.62;;;;;26.80;1.00;;;;;;2272608;61;1118;-88
2022/08/05 05:20:07;36423.00;0.12;63.70;0.00;0.00;0.62;;;;;27.00;1.00;;;;;;2272608;61;1529;-86
2022/08/05 05:22:34;599379.00;2.00;1033.15;201819.00;0.67;349.05;;;;;27.00;1.00;;;;;;2272621;61;921;-86
2022/08/05 05:25:01;69934.00;0.23;121.65;0.00;0.00;0.62;;;;;26.90;1.00;;;;;;2272525;61;2007;-87
2022/08/05 05:27:29;14067.00;0.05;24.99;0.00;0.00;0.62;;;;;27.00;1.00;;;;;;2272512;61;1082;-87
2022/08/05 05:29:56;76719.00;0.26;133.37;0.00;0.00;0.62;;;;;27.00;1.00;;;;;;2272515;61;1002;-87
2022/08/05 05:32:22;0.00;0.00;0.62;0.00;0.00;0.62;;;;;27.10;1.00;;;;;;2272512;61;1050;-87
2022/08/05 05:34:51;94210.00;0.31;163.58;27678.00;0.09;48.56;;;;;27.10;1.00;;;;;;2272409;61;2184;-86
2022/08/05 05:37:18;3178.00;0.01;6.13;0.00;0.00;0.62;;;;;27.30;1.00;;;;;;2272524;61;1110;-86
2022/08/05 05:39:45;0.00;0.00;0.62;0.00;0.00;0.62;;;;;27.40;1.00;;;;;;2272567;61;1177;-86
2022/08/05 05:42:11;455752.00;1.52;785.68;109273.00;0.36;189.58;;;;;27.80;1.00;;;;;;2272432;61;1147;-87
2022/08/05 05:44:38;0.00;0.00;0.62;0.00;0.00;0.62;;;;;28.80;1.00;;;;;;2272454;61;2002;-88
2022/08/05 05:47:05;0.00;0.00;0.62;0.00;0.00;0.62;;;;;30.00;1.00;;;;;;2272495;61;1020;-86
2022/08/05 05:49:32;0.00;0.00;0.62;0.00;0.00;0.62;;;;;31.30;1.00;;;;;;2272505;61;1115;-87
2022/08/05 05:52:01;0.00;0.00;0.62;0.00;0.00;0.62;;;;;32.80;1.00;;;;;;2272478;61;1134;-87
2022/08/05 05:54:28;29281.00;0.10;51.34;0.00;0.00;0.62;;;;;33.90;1.00;;;;;;2272218;61;1364;-87
2022/08/05 05:56:55;41534.00;0.14;72.54;0.00;0.00;0.62;;;;;34.80;1.00;;;;;;2268861;61;1320;-86
2022/08/05 05:59:23;0.00;0.00;0.62;0.00;0.00;0.62;;;;;35.40;1.00;;;;;;2272438;61;1102;-86
2022/08/05 06:01:49;0.00;0.00;0.62;0.00;0.00;0.62;;;;;35.70;1.00;;;;;;2272418;61;1227;-85
2022/08/05 06:04:16;0.00;0.00;0.62;0.00;0.00;0.62;;;;;36.10;1.00;;;;;;2272422;61;1998;-86
2022/08/05 06:06:44;0.00;0.00;0.62;0.00;0.00;0.62;;;;;36.60;1.00;;;;;;2272457;61;1086;-86
2022/08/05 06:09:13;33569.00;0.11;58.76;0.00;0.00;0.62;;;;;37.10;1.00;;;;;;2272423;61;1106;-87
2022/08/05 06:11:39;0.00;0.00;0.62;0.00;0.00;0.62;;;;;37.70;1.00;;;;;;2272488;61;1140;-87
2022/08/05 06:14:06;0.00;0.00;0.62;0.00;0.00;0.62;;;;;37.60;1.00;;;;;;2272416;61;1387;-88
2022/08/05 06:16:33;171199.00;0.57;296.33;104944.00;0.35;182.11;;;;;38.30;1.00;;;;;;2272483;61;1120;-87
2022/08/05 06:19:00;0.00;0.00;0.62;0.00;0.00;0.62;;;;;38.60;1.00;;;;;;2272429;61;1056;-87
2022/08/05 06:21:27;0.00;0.00;0.62;0.00;0.00;0.62;;;;;38.90;1.00;;;;;;2272438;61;1028;-87
2022/08/05 06:23:54;233779.00;0.78;404.05;67972.00;0.23;118.26;;;;;38.90;1.00;;;;;;2272349;61;1910;-86
2022/08/05 06:26:22;0.00;0.00;0.62;0.00;0.00;0.62;;;;;39.10;1.00;;;;;;2272481;61;1070;-86
2022/08/05 06:28:49;0.00;0.00;0.62;0.00;0.00;0.62;;;;;39.40;1.00;;;;;;2272433;61;1054;-87
2022/08/05 06:31:16;0.00;0.00;0.62;0.00;0.00;0.62;;;;;39.90;1.00;;;;;;2272403;61;1100;-86
2022/08/05 06:33:43;133955.00;0.45;232.15;0.00;0.00;0.62;;;;;39.90;1.00;;;;;;2272276;61;1399;-87
2022/08/05 06:36:10;476384.00;1.59;821.17;58779.00;0.20;102.37;;;;;40.10;1.00;;;;;;2279491;56;3781;-86
2022/08/05 06:38:37;446539.00;1.49;769.83;0.00;0.00;0.62;;;;;40.20;1.00;;;;;;2272249;61;1102;-87
2022/08/05 06:41:04;86200.00;0.29;149.75;0.00;0.00;0.62;;;;;40.80;1.00;;;;;;2272385;61;1134;-87
2022/08/05 06:43:32;0.00;0.00;0.62;0.00;0.00;0.62;;;;;40.10;1.00;;;;;;2272286;61;1916;-87
2022/08/05 06:45:59;145063.00;0.48;251.30;7854.00;0.03;14.23;;;;;39.50;1.00;;;;;;2272358;61;1237;-87
2022/08/05 06:48:26;37636.00;0.13;65.80;0.00;0.00;0.62;;;;;39.10;1.00;;;;;;2272281;61;1063;-88
2022/08/05 06:50:53;0.00;0.00;0.62;0.00;0.00;0.62;;;;;38.60;1.00;;;;;;2272306;61;1095;-87
2022/08/05 06:53:20;162242.00;0.54;280.90;48238.00;0.16;84.14;;;;;38.60;1.00;;;;;;2272225;61;1305;-87
2022/08/05 06:55:47;0.00;0.00;0.62;0.00;0.00;0.62;;;;;39.00;1.00;;;;;;2272346;61;937;-87
2022/08/05 06:58:14;8360.00;0.03;15.11;0.00;0.00;0.62;;;;;39.60;1.00;;;;;;2272347;61;1125;-88
2022/08/05 07:00:42;160116.00;0.53;277.24;0.00;0.00;0.62;;;;;39.60;1.00;;;;;;2272234;61;1011;-87
2022/08/05 07:03:12;1552.00;0.01;3.31;0.00;0.00;0.62;;;;;40.30;1.00;;;;;;2272348;61;1997;-86
2022/08/05 07:05:39;0.00;0.00;0.62;0.00;0.00;0.62;;;;;40.60;1.00;;;;;;2272154;61;1735;-87
2022/08/05 07:08:06;35866.00;0.12;62.74;0.00;0.00;0.62;;;;;41.30;1.00;;;;;;2272228;61;1019;-87
2022/08/05 07:10:33;0.00;0.00;0.62;0.00;0.00;0.62;;;;;41.80;1.00;;;;;;2272263;61;1121;-86
2022/08/05 07:18:31;160229.00;0.53;277.43;40255.00;0.13;70.33;;;;;43.20;1.00;;;;;;2272354;61;737;-86
2022/08/05 07:20:58;169219.00;0.56;292.92;38957.00;0.13;68.08;;;;;42.30;1.00;;;;;;2272321;61;1124;-87
2022/08/05 07:23:24;162971.00;0.54;282.16;47821.00;0.16;83.42;;;;;42.90;1.00;;;;;;2272255;61;1914;-88
2022/08/05 07:25:51;170006.00;0.57;294.28;38305.00;0.13;66.96;;;;;43.60;1.00;;;;;;2272213;61;2218;-87
2022/08/05 07:28:18;526393.00;1.75;907.28;203839.00;0.68;352.53;;;;;43.40;1.00;;;;;;2272235;61;1062;-87
2022/08/05 07:30:46;382168.00;1.27;659.15;49629.00;0.17;86.54;;;;;42.70;1.00;;;;;;2272222;61;1546;-86
2022/08/05 07:33:13;178885.00;0.60;309.57;54226.00;0.18;94.49;;;;;41.80;1.00;;;;;;2272248;61;1106;-87
2022/08/05 07:35:41;269853.00;0.90;466.09;60233.00;0.20;104.88;;;;;42.00;1.00;;;;;;2272094;61;1469;-86
2022/08/05 07:38:08;212044.00;0.71;366.65;44268.00;0.15;77.27;;;;;41.70;1.00;;;;;;2272159;61;913;-86
2022/08/05 07:40:35;411909.00;1.37;710.28;43095.00;0.14;75.24;;;;;41.80;1.00;;;;;;2272154;61;999;-86
2022/08/05 07:43:01;511578.00;1.71;881.76;125960.00;0.42;218.36;;;;;42.00;1.00;;;;;;2272221;61;871;-87
2022/08/05 07:45:30;327642.00;1.09;565.43;40653.00;0.14;71.02;;;;;42.10;1.00;;;;;;2272125;61;1918;-87
2022/08/05 07:47:59;225158.00;0.75;389.22;51037.00;0.17;88.98;;;;;42.00;1.00;;;;;;2268639;61;1152;-88
2022/08/05 07:50:26;458599.00;1.53;790.57;113837.00;0.38;197.45;;;;;42.10;1.00;;;;;;2272175;61;933;-88
2022/08/05 07:52:53;167557.00;0.56;290.06;50482.00;0.17;88.02;;;;;42.40;1.00;;;;;;2272125;61;1119;-87
2022/08/05 07:55:20;354915.00;1.18;612.31;93335.00;0.31;162.07;;;;;42.50;1.00;;;;;;2272047;61;1423;-87
2022/08/05 07:57:47;163438.00;0.54;282.96;45416.00;0.15;79.26;;;;;42.20;1.00;;;;;;2272078;61;1054;-88
2022/08/05 08:00:14;194871.00;0.65;337.09;91193.00;0.30;158.37;;;;;41.70;1.00;;;;;;2272142;61;1099;-88
2022/08/05 08:02:43;317074.00;1.06;547.27;35990.00;0.12;62.95;;;;;41.50;1.00;;;;;;2272076;61;1111;-88
2022/08/05 08:05:11;167495.00;0.56;289.95;41763.00;0.14;72.94;;;;;41.70;1.00;;;;;;2272013;61;2008;-87
2022/08/05 08:07:38;171481.00;0.57;296.82;44603.00;0.15;77.85;;;;;41.70;1.00;;;;;;2272070;61;1541;-88
2022/08/05 08:10:05;404612.00;1.35;697.73;80609.00;0.27;140.09;;;;;41.70;1.00;;;;;;2272056;61;1102;-88
2022/08/05 08:12:32;217018.00;0.72;375.21;43163.00;0.14;75.36;;;;;41.50;1.00;;;;;;2272150;61;1055;-87
2022/08/05 08:14:59;291786.00;0.97;503.80;64816.00;0.22;112.80;;;;;41.30;1.00;;;;;;2272067;61;1371;-88
2022/08/05 08:17:26;184447.00;0.61;319.15;8343.00;0.03;15.08;;;;;41.30;1.00;;;;;;2272518;61;1606;-87
2022/08/05 08:19:53;234435.00;0.78;405.18;61380.00;0.20;106.86;;;;;41.20;1.00;;;;;;2272771;61;1098;-87
2022/08/05 08:22:26;256726.00;0.86;443.52;65914.00;0.22;114.70;;;;;41.50;1.00;;;;;;2272837;61;1067;-88
2022/08/05 08:24:53;161756.00;0.54;280.06;37182.00;0.12;65.01;;;;;41.00;1.00;;;;;;2272663;61;1915;-87
2022/08/05 08:27:21;209962.00;0.70;363.07;43447.00;0.14;75.85;;;;;40.30;1.00;;;;;;2271262;61;1113;-84
2022/08/05 08:29:48;269191.00;0.90;464.95;81406.00;0.27;141.47;;;;;39.70;1.00;;;;;;2269359;61;1177;-84
2022/08/05 08:32:15;200540.00;0.67;346.85;53797.00;0.18;93.75;;;;;39.30;1.00;;;;;;2268122;61;1163;-83
2022/08/05 08:34:42;171898.00;0.57;297.54;55275.00;0.18;96.31;;;;;39.40;1.00;;;;;;2272586;61;1392;-85
2022/08/05 08:37:09;167421.00;0.56;289.82;54447.00;0.18;94.88;;;;;39.70;1.00;;;;;;2269941;61;1098;-84
2022/08/05 08:39:37;167231.00;0.56;289.50;51631.00;0.17;90.01;;;;;40.00;1.00;;;;;;2269373;61;1129;-84
2022/08/05 08:42:06;254608.00;0.85;439.88;44096.00;0.15;76.97;;;;;40.20;1.00;;;;;;2270234;61;1108;-83
2022/08/05 08:44:33;197745.00;0.66;342.04;51701.00;0.17;90.13;;;;;39.80;1.00;;;;;;2270805;61;2016;-83
2022/08/05 08:47:03;169919.00;0.57;294.13;53818.00;0.18;93.79;;;;;38.40;1.00;;;;;;2271134;61;1179;-83
2022/08/05 08:49:34;156002.00;0.52;270.15;37469.00;0.12;65.51;;;;;37.70;1.00;;;;;;2270937;61;1179;-83
2022/08/05 08:52:08;165432.00;0.55;286.40;50809.00;0.17;88.59;;;;;37.90;1.00;;;;;;2271130;61;1126;-83
2022/08/05 08:54:37;232412.00;0.77;401.70;38254.00;0.13;66.87;;;;;37.80;1.00;;;;;;2270121;61;1398;-82
2022/08/05 08:57:06;184362.00;0.61;319.00;46633.00;0.16;81.36;;;;;37.80;1.00;;;;;;2271424;61;1184;-82
2022/08/05 08:59:33;168502.00;0.56;291.69;52975.00;0.18;92.33;;;;;37.80;1.00;;;;;;2272628;61;1171;-84
2022/08/05 09:02:01;164711.00;0.55;285.16;50230.00;0.17;87.58;;;;;38.00;1.00;;;;;;2272078;61;1855;-84
2022/08/05 09:04:28;388108.00;1.29;669.36;138547.00;0.46;240.07;;;;;37.80;1.00;;;;;;2271396;61;1924;-83
2022/08/05 09:06:55;170876.00;0.57;295.78;45550.00;0.15;79.49;;;;;37.60;1.00;;;;;;2270267;61;1116;-84
2022/08/05 09:09:22;168641.00;0.56;291.93;54690.00;0.18;95.30;;;;;37.30;1.00;;;;;;2271046;61;1120;-83
2022/08/05 09:11:50;246913.00;0.82;426.64;38561.00;0.13;67.40;;;;;37.00;1.00;;;;;;2271519;61;1188;-83
2022/08/05 09:14:17;162869.00;0.54;281.98;51136.00;0.17;89.15;;;;;37.00;1.00;;;;;;2272411;61;1363;-83
2022/08/05 09:16:44;164955.00;0.55;285.58;48102.00;0.16;83.90;;;;;37.40;1.00;;;;;;2272262;61;1047;-83
2022/08/05 09:19:11;203859.00;0.68;352.57;51881.00;0.17;90.44;;;;;36.40;1.00;;;;;;2272614;61;1558;-85
2022/08/05 09:21:38;452963.00;1.51;780.88;223807.00;0.75;386.89;;;;;34.80;1.00;;;;;;2272260;61;1314;-85
2022/08/05 09:24:08;156136.00;0.52;270.38;71684.00;0.24;124.67;;;;;34.00;1.00;;;;;;2272569;61;2014;-86
2022/08/05 09:26:35;187495.00;0.62;324.40;54906.00;0.18;95.67;;;;;33.30;1.00;;;;;;2272599;61;1026;-85
2022/08/05 09:29:06;117583400.00;391.94;65851924.00;54593.00;0.18;95.13;;;;;33.60;1.00;;;;;;2272645;61;1100;-85
2022/08/05 09:31:34;0.00;0.00;0.62;0.00;0.00;0.62;;;;;34.10;1.00;;;;;;2272696;61;1095;-85
2022/08/05 09:34:04;0.00;0.00;0.62;0.00;0.00;0.62;;;;;34.70;1.00;;;;;;2270292;61;1286;-83
2022/08/05 09:36:43;0.00;0.00;0.62;0.00;0.00;0.62;;;;;34.80;1.00;;;;;;2269108;61;1156;-84
2022/08/05 09:39:13;0.00;0.00;0.62;0.00;0.00;0.62;;;;;34.30;1.00;;;;;;2270101;61;1108;-82
2022/08/05 09:41:56;0.00;0.00;0.62;0.00;0.00;0.62;;;;;34.80;1.00;;;;;;2269035;61;1224;-84
2022/08/05 09:44:39;0.00;0.00;0.62;0.00;0.00;0.62;;;;;35.20;1.00;;;;;;2269562;61;2024;-83
2022/08/05 09:47:09;165159.00;0.55;285.93;60861.00;0.20;105.97;;;;;35.10;1.00;;;;;;2269800;61;1171;-83
2022/08/05 09:49:40;0.00;0.00;0.62;0.00;0.00;0.62;;;;;34.70;1.00;;;;;;2271095;61;1189;-85
2022/08/05 09:52:19;73252.00;0.24;127.38;0.00;0.00;0.62;;;;;34.50;1.00;;;;;;2272501;61;1152;-84
2022/08/05 09:54:56;0.00;0.00;0.62;0.00;0.00;0.62;;;;;35.10;1.00;;;;;;2271078;61;1737;-82
2022/08/05 09:57:31;0.00;0.00;0.62;0.00;0.00;0.62;;;;;35.30;1.00;;;;;;2270899;61;1167;-83
2022/08/05 10:00:00;124876152.00;416.25;78893520.00;124578488.00;415.26;78330160.00;;;;;35.40;1.00;;;;;;2270741;61;1550;-83
2022/08/05 10:02:34;161618.00;0.54;279.83;55646.00;0.19;96.95;;;;;35.30;1.00;;;;;;2271231;61;1101;-84
2022/08/05 10:05:08;165839.00;0.55;287.10;54666.00;0.18;95.25;;;;;35.40;1.00;;;;;;2271241;61;2018;-83
2022/08/05 10:07:48;179347.00;0.60;310.37;59062.00;0.20;102.86;;;;;35.70;1.00;;;;;;2271692;61;1120;-84
2022/08/05 10:10:16;180262.00;0.60;311.94;55835.00;0.19;97.28;;;;;35.80;1.00;;;;;;2271031;61;1112;-84
2022/08/05 10:12:45;178152.00;0.59;308.31;53920.00;0.18;93.96;;;;;34.90;1.00;;;;;;2271437;61;1190;-84
2022/08/05 10:15:20;174879.00;0.58;302.67;60733.00;0.20;105.74;;;;;34.90;1.00;;;;;;2272420;61;1363;-82
2022/08/05 10:18:10;491706.00;1.64;847.55;59295.00;0.20;103.26;;;;;34.60;1.00;;;;;;2270651;61;2645;-85
2022/08/05 10:20:41;32751.00;0.11;57.34;0.00;0.00;0.62;;;;;34.50;1.00;;;;;;2270296;61;1132;-85